Buzzards Bay, Massachusetts
Current Conditions -  °F | °C
As of 10:55 AM on Friday 24 Oct 2014 (Local Time) from KFMH Reporting Station
Overcast Overcast  
Wind Chill: 52°   Ceiling: 1000
Heat Index: 52°   Visibility: 8mi
Dew Point: 48°   Wind: 10mph
Humidity: 88%   Direction: 340°NNW
Pressure: 29.68"   Gusts: 17mph
Location:  41.75°N, 70.61°W
Report Text: KFMH 241455Z AUTO 34009G15KT 8SM BKN010 OVC014 11/09 A2968 RMK AO2
Loading
Personal Weather Stations






























Interactive Weather Map
Tropical Storm Tracking
New forecast layout! Learn more

10-Day Weather Forecast

Advertisements
Track Severe Weather on mobile